sensor_id;sensor_type;location;lat;lon;timestamp;pressure;altitude;pressure_sealevel;temperature;humidity
16190;BME280;41754;51.498;7.540;2023-04-29T00:01:20;100005.59;;;13.52;75.01
16190;BME280;41754;51.498;7.540;2023-04-29T00:03:48;99995.75;;;13.42;75.41
16190;BME280;41754;51.498;7.540;2023-04-29T00:06:16;100011.72;;;13.16;76.41
16190;BME280;41754;51.498;7.540;2023-04-29T00:08:44;100010.00;;;13.24;77.17
16190;BME280;41754;51.498;7.540;2023-04-29T00:11:12;100009.56;;;13.42;75.80
16190;BME280;41754;51.498;7.540;2023-04-29T00:13:42;100013.94;;;13.43;75.18
16190;BME280;41754;51.498;7.540;2023-04-29T00:16:10;100007.16;;;13.11;75.54
16190;BME280;41754;51.498;7.540;2023-04-29T00:18:37;100012.22;;;13.09;75.00
16190;BME280;41754;51.498;7.540;2023-04-29T00:21:05;100019.03;;;13.12;75.29
16190;BME280;41754;51.498;7.540;2023-04-29T00:23:33;100010.53;;;12.96;75.01
16190;BME280;41754;51.498;7.540;2023-04-29T00:26:01;100018.22;;;13.11;74.73
16190;BME280;41754;51.498;7.540;2023-04-29T00:28:29;100011.19;;;12.93;74.42
16190;BME280;41754;51.498;7.540;2023-04-29T00:30:59;100021.78;;;13.12;74.82
16190;BME280;41754;51.498;7.540;2023-04-29T00:33:27;100020.22;;;12.73;75.26
16190;BME280;41754;51.498;7.540;2023-04-29T00:35:55;100026.53;;;12.82;75.00
16190;BME280;41754;51.498;7.540;2023-04-29T00:38:23;100034.22;;;12.59;75.82
16190;BME280;41754;51.498;7.540;2023-04-29T00:40:51;100032.63;;;12.49;76.73
16190;BME280;41754;51.498;7.540;2023-04-29T00:43:20;100034.81;;;12.82;76.25
16190;BME280;41754;51.498;7.540;2023-04-29T00:45:48;100039.28;;;12.95;75.30
16190;BME280;41754;51.498;7.540;2023-04-29T00:48:17;100039.50;;;12.81;74.49
16190;BME280;41754;51.498;7.540;2023-04-29T00:50:45;100041.47;;;12.81;75.85
16190;BME280;41754;51.498;7.540;2023-04-29T00:53:13;100047.00;;;12.81;76.23
16190;BME280;41754;51.498;7.540;2023-04-29T00:55:43;100050.13;;;12.71;76.70
16190;BME280;41754;51.498;7.540;2023-04-29T00:58:11;100057.59;;;12.70;77.66
16190;BME280;41754;51.498;7.540;2023-04-29T01:00:40;100058.66;;;12.86;77.08
16190;BME280;41754;51.498;7.540;2023-04-29T01:03:09;100058.94;;;12.64;77.76
16190;BME280;41754;51.498;7.540;2023-04-29T01:05:39;100070.03;;;12.85;77.23
16190;BME280;41754;51.498;7.540;2023-04-29T01:08:22;100072.88;;;12.68;77.20
16190;BME280;41754;51.498;7.540;2023-04-29T01:11:02;100072.25;;;12.53;77.84
16190;BME280;41754;51.498;7.540;2023-04-29T01:13:36;100070.38;;;12.75;78.68
16190;BME280;41754;51.498;7.540;2023-04-29T01:16:08;100081.97;;;12.68;78.97
16190;BME280;41754;51.498;7.540;2023-04-29T01:18:40;100076.34;;;12.30;79.41
16190;BME280;41754;51.498;7.540;2023-04-29T01:21:16;100087.53;;;12.42;79.25
16190;BME280;41754;51.498;7.540;2023-04-29T01:23:46;100082.97;;;12.64;78.94
16190;BME280;41754;51.498;7.540;2023-04-29T01:26:19;100084.91;;;12.37;78.69
16190;BME280;41754;51.498;7.540;2023-04-29T01:29:30;100084.38;;;12.78;78.36
16190;BME280;41754;51.498;7.540;2023-04-29T01:32:04;100089.06;;;12.78;78.16
16190;BME280;41754;51.498;7.540;2023-04-29T01:34:43;100093.78;;;12.77;77.56
16190;BME280;41754;51.498;7.540;2023-04-29T01:37:18;100087.16;;;12.61;77.96
16190;BME280;41754;51.498;7.540;2023-04-29T01:39:59;100100.56;;;11.98;80.06
16190;BME280;41754;51.498;7.540;2023-04-29T01:42:39;100092.44;;;12.28;80.27
16190;BME280;41754;51.498;7.540;2023-04-29T01:45:14;100088.78;;;12.62;79.48
16190;BME280;41754;51.498;7.540;2023-04-29T01:47:45;100103.31;;;11.98;81.23
16190;BME280;41754;51.498;7.540;2023-04-29T01:50:14;100096.81;;;12.12;80.46
16190;BME280;41754;51.498;7.540;2023-04-29T01:52:42;100102.00;;;12.22;79.66
16190;BME280;41754;51.498;7.540;2023-04-29T01:55:12;100101.31;;;12.34;79.23
16190;BME280;41754;51.498;7.540;2023-04-29T01:58:06;100095.00;;;12.33;79.01
16190;BME280;41754;51.498;7.540;2023-04-29T02:00:52;100098.72;;;12.37;79.01
16190;BME280;41754;51.498;7.540;2023-04-29T02:03:21;100107.38;;;12.18;79.01
16190;BME280;41754;51.498;7.540;2023-04-29T02:05:53;100107.84;;;12.29;79.24
16190;BME280;41754;51.498;7.540;2023-04-29T02:08:21;100103.47;;;12.19;79.67
16190;BME280;41754;51.498;7.540;2023-04-29T02:10:53;100108.19;;;11.84;81.07
16190;BME280;41754;51.498;7.540;2023-04-29T02:13:30;100121.47;;;12.17;80.86
16190;BME280;41754;51.498;7.540;2023-04-29T02:16:06;100116.25;;;12.24;79.17
16190;BME280;41754;51.498;7.540;2023-04-29T02:18:37;100125.06;;;11.91;79.46
16190;BME280;41754;51.498;7.540;2023-04-29T02:21:06;100134.59;;;11.59;82.30
16190;BME280;41754;51.498;7.540;2023-04-29T02:23:35;100131.03;;;12.11;80.82
16190;BME280;41754;51.498;7.540;2023-04-29T02:26:04;100123.44;;;11.90;79.57
16190;BME280;41754;51.498;7.540;2023-04-29T02:28:33;100134.78;;;11.89;79.46
16190;BME280;41754;51.498;7.540;2023-04-29T02:31:02;100129.25;;;11.80;78.50
16190;BME280;41754;51.498;7.540;2023-04-29T02:33:31;100148.38;;;11.68;80.06
16190;BME280;41754;51.498;7.540;2023-04-29T02:35:59;100146.72;;;11.50;79.75
16190;BME280;41754;51.498;7.540;2023-04-29T02:38:27;100148.81;;;11.44;79.77
16190;BME280;41754;51.498;7.540;2023-04-29T02:40:55;100152.97;;;11.33;80.24
16190;BME280;41754;51.498;7.540;2023-04-29T02:43:24;100159.94;;;11.30;80.45
16190;BME280;41754;51.498;7.540;2023-04-29T02:45:57;100150.69;;;11.35;79.61
16190;BME280;41754;51.498;7.540;2023-04-29T02:48:26;100157.81;;;11.84;77.78
16190;BME280;41754;51.498;7.540;2023-04-29T02:50:53;100154.84;;;11.55;78.40
16190;BME280;41754;51.498;7.540;2023-04-29T02:53:21;100153.91;;;11.68;78.44
16190;BME280;41754;51.498;7.540;2023-04-29T02:55:49;100158.63;;;11.76;77.61
16190;BME280;41754;51.498;7.540;2023-04-29T02:58:18;100165.88;;;11.72;78.52
16190;BME280;41754;51.498;7.540;2023-04-29T03:00:47;100162.31;;;11.72;77.99
16190;BME280;41754;51.498;7.540;2023-04-29T03:03:15;100165.88;;;11.72;78.73
16190;BME280;41754;51.498;7.540;2023-04-29T03:05:43;100164.44;;;12.01;77.04
16190;BME280;41754;51.498;7.540;2023-04-29T03:08:11;100174.47;;;11.71;77.14
16190;BME280;41754;51.498;7.540;2023-04-29T03:10:40;100178.84;;;11.63;77.62
16190;BME280;41754;51.498;7.540;2023-04-29T03:13:08;100173.69;;;11.87;77.38
16190;BME280;41754;51.498;7.540;2023-04-29T03:15:36;100173.84;;;11.65;77.93
16190;BME280;41754;51.498;7.540;2023-04-29T03:18:06;100181.41;;;11.51;78.24
16190;BME280;41754;51.498;7.540;2023-04-29T03:20:35;100182.50;;;11.41;78.37
16190;BME280;41754;51.498;7.540;2023-04-29T03:23:03;100184.63;;;11.44;78.49
16190;BME280;41754;51.498;7.540;2023-04-29T03:25:31;100182.44;;;11.32;78.48
16190;BME280;41754;51.498;7.540;2023-04-29T03:27:59;100184.06;;;11.64;77.70
16190;BME280;41754;51.498;7.540;2023-04-29T03:30:29;100191.16;;;11.17;78.32
16190;BME280;41754;51.498;7.540;2023-04-29T03:32:58;100183.03;;;11.52;77.83
16190;BME280;41754;51.498;7.540;2023-04-29T03:35:29;100187.94;;;11.72;77.14
16190;BME280;41754;51.498;7.540;2023-04-29T03:38:16;100183.22;;;11.24;77.77
16190;BME280;41754;51.498;7.540;2023-04-29T03:40:44;100188.50;;;11.43;77.62
16190;BME280;41754;51.498;7.540;2023-04-29T03:43:14;100193.78;;;11.71;77.20
16190;BME280;41754;51.498;7.540;2023-04-29T03:45:42;100186.00;;;11.73;76.60
16190;BME280;41754;51.498;7.540;2023-04-29T03:48:12;100190.22;;;11.87;75.71
16190;BME280;41754;51.498;7.540;2023-04-29T03:50:42;100198.63;;;11.65;76.97
16190;BME280;41754;51.498;7.540;2023-04-29T03:53:10;100200.75;;;11.28;78.06
16190;BME280;41754;51.498;7.540;2023-04-29T03:55:38;100204.97;;;11.34;78.53
16190;BME280;41754;51.498;7.540;2023-04-29T03:58:07;100198.84;;;11.77;77.27
16190;BME280;41754;51.498;7.540;2023-04-29T04:00:35;100206.53;;;11.18;77.70
16190;BME280;41754;51.498;7.540;2023-04-29T04:03:08;100211.81;;;11.06;77.93
16190;BME280;41754;51.498;7.540;2023-04-29T04:05:37;100214.81;;;11.18;79.25
16190;BME280;41754;51.498;7.540;2023-04-29T04:08:09;100205.47;;;11.28;78.69
16190;BME280;41754;51.498;7.540;2023-04-29T04:10:54;100214.81;;;11.18;78.96
16190;BME280;41754;51.498;7.540;2023-04-29T04:13:33;100213.13;;;11.39;78.02
16190;BME280;41754;51.498;7.540;2023-04-29T04:16:02;100216.59;;;11.54;77.74
16190;BME280;41754;51.498;7.540;2023-04-29T04:18:30;100220.09;;;11.06;78.41
16190;BME280;41754;51.498;7.540;2023-04-29T04:21:04;100230.19;;;11.19;78.74
16190;BME280;41754;51.498;7.540;2023-04-29T04:23:34;100240.31;;;11.32;78.13
16190;BME280;41754;51.498;7.540;2023-04-29T04:26:03;100229.91;;;10.98;79.24
16190;BME280;41754;51.498;7.540;2023-04-29T04:28:57;100239.56;;;11.49;77.92
16190;BME280;41754;51.498;7.540;2023-04-29T04:31:37;100237.81;;;11.22;78.62
16190;BME280;41754;51.498;7.540;2023-04-29T04:34:07;100246.16;;;11.08;79.59
16190;BME280;41754;51.498;7.540;2023-04-29T04:36:35;100234.50;;;11.43;78.58
16190;BME280;41754;51.498;7.540;2023-04-29T04:39:04;100247.44;;;11.33;79.14
16190;BME280;41754;51.498;7.540;2023-04-29T04:41:32;100245.66;;;11.37;77.70
16190;BME280;41754;51.498;7.540;2023-04-29T04:44:01;100249.31;;;11.24;78.43
16190;BME280;41754;51.498;7.540;2023-04-29T04:46:52;100253.63;;;11.79;77.47
16190;BME280;41754;51.498;7.540;2023-04-29T04:49:37;100252.41;;;11.54;77.39
16190;BME280;41754;51.498;7.540;2023-04-29T04:52:05;100266.53;;;11.52;77.33
16190;BME280;41754;51.498;7.540;2023-04-29T04:54:35;100259.88;;;11.62;77.61
16190;BME280;41754;51.498;7.540;2023-04-29T04:57:14;100258.63;;;11.68;76.01
16190;BME280;41754;51.498;7.540;2023-04-29T04:59:43;100274.53;;;11.71;76.47
16190;BME280;41754;51.498;7.540;2023-04-29T05:02:11;100263.69;;;11.83;75.28
16190;BME280;41754;51.498;7.540;2023-04-29T05:04:39;100273.25;;;11.77;75.19
16190;BME280;41754;51.498;7.540;2023-04-29T05:07:07;100275.41;;;11.97;75.43
16190;BME280;41754;51.498;7.540;2023-04-29T05:09:57;100275.38;;;11.80;74.73
16190;BME280;41754;51.498;7.540;2023-04-29T05:12:26;100279.06;;;11.67;75.45
16190;BME280;41754;51.498;7.540;2023-04-29T05:14:57;100278.09;;;11.40;75.68
16190;BME280;41754;51.498;7.540;2023-04-29T05:17:26;100277.59;;;11.69;75.25
16190;BME280;41754;51.498;7.540;2023-04-29T05:19:54;100277.25;;;11.62;76.07
16190;BME280;41754;51.498;7.540;2023-04-29T05:22:23;100269.97;;;11.75;75.01
16190;BME280;41754;51.498;7.540;2023-04-29T05:24:51;100277.19;;;11.93;73.22
16190;BME280;41754;51.498;7.540;2023-04-29T05:27:21;100277.56;;;12.18;73.19
16190;BME280;41754;51.498;7.540;2023-04-29T05:29:49;100275.72;;;11.96;73.79
16190;BME280;41754;51.498;7.540;2023-04-29T05:32:18;100277.88;;;12.08;72.95
16190;BME280;41754;51.498;7.540;2023-04-29T05:34:46;100281.25;;;11.96;72.99
16190;BME280;41754;51.498;7.540;2023-04-29T05:37:14;100282.13;;;12.14;72.37
16190;BME280;41754;51.498;7.540;2023-04-29T05:40:01;100285.22;;;12.47;71.26
16190;BME280;41754;51.498;7.540;2023-04-29T05:42:34;100293.97;;;12.32;71.73
16190;BME280;41754;51.498;7.540;2023-04-29T05:45:02;100292.50;;;12.34;71.29
16190;BME280;41754;51.498;7.540;2023-04-29T05:47:31;100293.97;;;12.23;71.20
16190;BME280;41754;51.498;7.540;2023-04-29T05:50:00;100300.97;;;12.46;71.83
16190;BME280;41754;51.498;7.540;2023-04-29T05:52:27;100309.72;;;12.31;70.33
16190;BME280;41754;51.498;7.540;2023-04-29T05:54:55;100306.97;;;12.40;70.45
16190;BME280;41754;51.498;7.540;2023-04-29T05:57:24;100317.69;;;12.58;69.57
16190;BME280;41754;51.498;7.540;2023-04-29T05:59:55;100304.56;;;12.99;68.83
16190;BME280;41754;51.498;7.540;2023-04-29T06:02:39;100322.88;;;12.25;69.45
16190;BME280;41754;51.498;7.540;2023-04-29T06:05:24;100324.97;;;12.28;70.33
16190;BME280;41754;51.498;7.540;2023-04-29T06:08:17;100333.34;;;12.06;70.36
16190;BME280;41754;51.498;7.540;2023-04-29T06:10:51;100332.97;;;12.39;70.57
16190;BME280;41754;51.498;7.540;2023-04-29T06:13:19;100337.63;;;12.30;70.22
16190;BME280;41754;51.498;7.540;2023-04-29T06:15:49;100346.16;;;12.68;68.72
16190;BME280;41754;51.498;7.540;2023-04-29T06:18:17;100339.00;;;12.84;67.36
16190;BME280;41754;51.498;7.540;2023-04-29T06:20:46;100355.50;;;12.32;69.04
16190;BME280;41754;51.498;7.540;2023-04-29T06:23:14;100351.78;;;12.45;68.17
16190;BME280;41754;51.498;7.540;2023-04-29T06:25:42;100361.88;;;11.39;70.84
16190;BME280;41754;51.498;7.540;2023-04-29T06:28:10;100365.56;;;12.28;69.23
16190;BME280;41754;51.498;7.540;2023-04-29T06:30:38;100363.13;;;12.35;68.76
16190;BME280;41754;51.498;7.540;2023-04-29T06:33:08;100373.63;;;12.16;69.74
16190;BME280;41754;51.498;7.540;2023-04-29T06:35:38;100372.00;;;12.15;69.25
16190;BME280;41754;51.498;7.540;2023-04-29T06:38:23;100374.97;;;11.34;72.20
16190;BME280;41754;51.498;7.540;2023-04-29T06:41:13;100376.97;;;11.64;71.22
16190;BME280;41754;51.498;7.540;2023-04-29T06:43:41;100370.56;;;11.86;71.13
16190;BME280;41754;51.498;7.540;2023-04-29T06:46:44;100382.03;;;12.02;70.74
16190;BME280;41754;51.498;7.540;2023-04-29T06:49:23;100385.53;;;12.42;69.70
16190;BME280;41754;51.498;7.540;2023-04-29T06:51:51;100389.31;;;12.07;68.72
16190;BME280;41754;51.498;7.540;2023-04-29T06:54:19;100394.84;;;11.76;71.22
16190;BME280;41754;51.498;7.540;2023-04-29T06:56:49;100394.75;;;12.29;69.16
16190;BME280;41754;51.498;7.540;2023-04-29T06:59:17;100401.22;;;12.16;69.46
16190;BME280;41754;51.498;7.540;2023-04-29T07:01:45;100410.19;;;12.30;68.98
16190;BME280;41754;51.498;7.540;2023-04-29T07:04:18;100415.06;;;11.93;69.62
16190;BME280;41754;51.498;7.540;2023-04-29T07:06:48;100423.06;;;12.04;70.40
16190;BME280;41754;51.498;7.540;2023-04-29T07:09:16;100417.59;;;11.81;70.96
16190;BME280;41754;51.498;7.540;2023-04-29T07:11:44;100425.72;;;11.55;72.57
16190;BME280;41754;51.498;7.540;2023-04-29T07:14:12;100423.44;;;11.57;72.78
16190;BME280;41754;51.498;7.540;2023-04-29T07:16:40;100440.31;;;10.84;77.05
16190;BME280;41754;51.498;7.540;2023-04-29T07:19:09;100452.28;;;10.65;78.75
16190;BME280;41754;51.498;7.540;2023-04-29T07:21:37;100454.31;;;10.60;79.87
16190;BME280;41754;51.498;7.540;2023-04-29T07:24:07;100447.25;;;10.81;79.02
16190;BME280;41754;51.498;7.540;2023-04-29T07:26:35;100457.63;;;10.98;77.74
16190;BME280;41754;51.498;7.540;2023-04-29T07:29:06;100460.38;;;10.98;77.05
16190;BME280;41754;51.498;7.540;2023-04-29T07:31:34;100467.91;;;11.06;77.70
16190;BME280;41754;51.498;7.540;2023-04-29T07:34:04;100474.41;;;11.10;77.11
16190;BME280;41754;51.498;7.540;2023-04-29T07:36:32;100469.44;;;11.34;76.68
16190;BME280;41754;51.498;7.540;2023-04-29T07:39:01;100472.41;;;11.02;75.66
16190;BME280;41754;51.498;7.540;2023-04-29T07:41:32;100478.78;;;11.11;77.26
16190;BME280;41754;51.498;7.540;2023-04-29T07:44:00;100476.56;;;11.35;75.56
16190;BME280;41754;51.498;7.540;2023-04-29T07:46:32;100487.81;;;11.25;75.95
16190;BME280;41754;51.498;7.540;2023-04-29T07:49:01;100490.44;;;11.08;77.27
16190;BME280;41754;51.498;7.540;2023-04-29T07:51:29;100490.78;;;10.93;78.33
16190;BME280;41754;51.498;7.540;2023-04-29T07:53:58;100500.94;;;11.06;77.62
16190;BME280;41754;51.498;7.540;2023-04-29T07:56:26;100502.69;;;11.02;78.29
16190;BME280;41754;51.498;7.540;2023-04-29T07:58:56;100508.53;;;11.23;77.52
16190;BME280;41754;51.498;7.540;2023-04-29T08:01:24;100512.47;;;11.08;77.82
16190;BME280;41754;51.498;7.540;2023-04-29T08:03:52;100519.94;;;10.94;78.19
16190;BME280;41754;51.498;7.540;2023-04-29T08:06:23;100532.78;;;10.71;80.11
16190;BME280;41754;51.498;7.540;2023-04-29T08:08:51;100523.41;;;10.86;79.40
16190;BME280;41754;51.498;7.540;2023-04-29T08:11:20;100526.28;;;11.30;77.86
16190;BME280;41754;51.498;7.540;2023-04-29T08:13:51;100525.41;;;11.07;78.00
16190;BME280;41754;51.498;7.540;2023-04-29T08:16:20;100525.50;;;11.16;77.64
16190;BME280;41754;51.498;7.540;2023-04-29T08:18:51;100534.03;;;10.78;78.67
16190;BME280;41754;51.498;7.540;2023-04-29T08:21:20;100536.75;;;11.06;80.06
16190;BME280;41754;51.498;7.540;2023-04-29T08:23:48;100541.66;;;10.68;79.88
16190;BME280;41754;51.498;7.540;2023-04-29T08:26:16;100536.34;;;10.99;79.05
16190;BME280;41754;51.498;7.540;2023-04-29T08:28:44;100549.25;;;11.12;79.92
16190;BME280;41754;51.498;7.540;2023-04-29T08:31:15;100536.84;;;11.15;78.37
16190;BME280;41754;51.498;7.540;2023-04-29T08:33:45;100543.09;;;11.43;78.17
16190;BME280;41754;51.498;7.540;2023-04-29T08:36:14;100539.78;;;11.18;78.34
16190;BME280;41754;51.498;7.540;2023-04-29T08:38:43;100545.22;;;10.96;77.73
16190;BME280;41754;51.498;7.540;2023-04-29T08:41:11;100547.00;;;11.28;79.01
16190;BME280;41754;51.498;7.540;2023-04-29T08:43:41;100548.19;;;11.35;78.54
16190;BME280;41754;51.498;7.540;2023-04-29T08:46:09;100550.91;;;11.27;78.07
16190;BME280;41754;51.498;7.540;2023-04-29T08:48:38;100554.97;;;11.29;77.93
16190;BME280;41754;51.498;7.540;2023-04-29T08:51:12;100558.56;;;11.16;78.18
16190;BME280;41754;51.498;7.540;2023-04-29T08:53:40;100571.22;;;11.03;78.14
16190;BME280;41754;51.498;7.540;2023-04-29T08:56:12;100569.53;;;11.44;78.37
16190;BME280;41754;51.498;7.540;2023-04-29T08:58:42;100566.28;;;11.28;78.56
16190;BME280;41754;51.498;7.540;2023-04-29T09:01:10;100565.53;;;11.63;77.24
16190;BME280;41754;51.498;7.540;2023-04-29T09:03:43;100576.16;;;11.56;76.91
16190;BME280;41754;51.498;7.540;2023-04-29T09:06:19;100571.16;;;11.81;75.64
16190;BME280;41754;51.498;7.540;2023-04-29T09:08:47;100574.53;;;11.42;76.13
16190;BME280;41754;51.498;7.540;2023-04-29T09:11:16;100572.41;;;11.25;77.19
16190;BME280;41754;51.498;7.540;2023-04-29T09:13:45;100574.94;;;11.49;77.06
16190;BME280;41754;51.498;7.540;2023-04-29T09:16:13;100575.84;;;12.25;74.57
16190;BME280;41754;51.498;7.540;2023-04-29T09:18:44;100568.09;;;12.27;71.64
16190;BME280;41754;51.498;7.540;2023-04-29T09:21:19;100563.13;;;12.69;71.00
16190;BME280;41754;51.498;7.540;2023-04-29T09:23:50;100572.69;;;13.02;69.87
16190;BME280;41754;51.498;7.540;2023-04-29T09:26:18;100580.56;;;12.78;69.79
16190;BME280;41754;51.498;7.540;2023-04-29T09:28:46;100577.91;;;12.73;69.82
16190;BME280;41754;51.498;7.540;2023-04-29T09:31:26;100578.72;;;12.42;69.43
16190;BME280;41754;51.498;7.540;2023-04-29T09:33:56;100583.22;;;12.61;69.88
16190;BME280;41754;51.498;7.540;2023-04-29T09:36:37;100581.47;;;12.65;68.77
16190;BME280;41754;51.498;7.540;2023-04-29T09:39:09;100590.75;;;12.46;68.69
16190;BME280;41754;51.498;7.540;2023-04-29T09:41:40;100593.44;;;12.91;68.64
16190;BME280;41754;51.498;7.540;2023-04-29T09:44:13;100600.88;;;12.82;67.70
16190;BME280;41754;51.498;7.540;2023-04-29T09:46:41;100598.19;;;13.08;67.45
16190;BME280;41754;51.498;7.540;2023-04-29T09:49:21;100595.50;;;13.34;65.87
16190;BME280;41754;51.498;7.540;2023-04-29T09:51:55;100596.34;;;13.52;64.89
16190;BME280;41754;51.498;7.540;2023-04-29T09:54:24;100596.88;;;13.97;63.40
16190;BME280;41754;51.498;7.540;2023-04-29T09:56:55;100592.19;;;14.70;62.24
16190;BME280;41754;51.498;7.540;2023-04-29T09:59:24;100586.97;;;15.07;58.34
16190;BME280;41754;51.498;7.540;2023-04-29T10:01:54;100596.53;;;15.18;58.68
16190;BME280;41754;51.498;7.540;2023-04-29T10:04:24;100590.44;;;15.54;57.38
16190;BME280;41754;51.498;7.540;2023-04-29T10:06:54;100591.22;;;14.66;58.84
16190;BME280;41754;51.498;7.540;2023-04-29T10:09:23;100600.97;;;14.72;58.69
16190;BME280;41754;51.498;7.540;2023-04-29T10:11:51;100597.50;;;14.37;58.92
16190;BME280;41754;51.498;7.540;2023-04-29T10:14:21;100593.19;;;14.74;59.12
16190;BME280;41754;51.498;7.540;2023-04-29T10:16:58;100597.19;;;14.85;59.09
16190;BME280;41754;51.498;7.540;2023-04-29T10:19:33;100599.41;;;15.01;59.17
16190;BME280;41754;51.498;7.540;2023-04-29T10:22:08;100603.63;;;15.87;57.34
16190;BME280;41754;51.498;7.540;2023-04-29T10:24:37;100600.69;;;16.37;53.24
16190;BME280;41754;51.498;7.540;2023-04-29T10:27:06;100598.25;;;16.81;52.07
16190;BME280;41754;51.498;7.540;2023-04-29T10:29:36;100598.06;;;17.10;51.09
16190;BME280;41754;51.498;7.540;2023-04-29T10:32:06;100600.59;;;16.79;51.96
16190;BME280;41754;51.498;7.540;2023-04-29T10:34:37;100604.28;;;16.04;54.07
16190;BME280;41754;51.498;7.540;2023-04-29T10:37:09;100596.81;;;16.17;53.12
16190;BME280;41754;51.498;7.540;2023-04-29T10:39:42;100600.97;;;16.11;53.63
16190;BME280;41754;51.498;7.540;2023-04-29T10:42:24;100600.28;;;15.93;53.60
16190;BME280;41754;51.498;7.540;2023-04-29T10:45:20;100604.94;;;16.55;51.43
16190;BME280;41754;51.498;7.540;2023-04-29T10:48:13;100604.69;;;16.48;50.93
16190;BME280;41754;51.498;7.540;2023-04-29T10:51:02;100599.41;;;16.68;49.95
16190;BME280;41754;51.498;7.540;2023-04-29T10:54:00;100599.78;;;16.45;49.91
16190;BME280;41754;51.498;7.540;2023-04-29T10:56:40;100606.31;;;15.95;52.27
16190;BME280;41754;51.498;7.540;2023-04-29T10:59:34;100617.34;;;15.83;51.92
16190;BME280;41754;51.498;7.540;2023-04-29T11:02:20;100608.31;;;16.07;50.71
16190;BME280;41754;51.498;7.540;2023-04-29T11:05:06;100616.81;;;15.90;52.48
16190;BME280;41754;51.498;7.540;2023-04-29T11:07:34;100613.28;;;16.01;52.00
16190;BME280;41754;51.498;7.540;2023-04-29T11:10:03;100622.59;;;16.96;49.98
16190;BME280;41754;51.498;7.540;2023-04-29T11:12:31;100623.06;;;16.74;50.41
16190;BME280;41754;51.498;7.540;2023-04-29T11:14:59;100614.75;;;16.53;49.22
16190;BME280;41754;51.498;7.540;2023-04-29T11:17:35;100615.34;;;16.58;49.18
16190;BME280;41754;51.498;7.540;2023-04-29T11:20:08;100615.50;;;17.84;47.34
16190;BME280;41754;51.498;7.540;2023-04-29T11:22:37;100615.69;;;17.51;48.69
16190;BME280;41754;51.498;7.540;2023-04-29T11:25:06;100623.28;;;17.66;46.70
16190;BME280;41754;51.498;7.540;2023-04-29T11:27:36;100614.97;;;17.42;46.71
16190;BME280;41754;51.498;7.540;2023-04-29T11:30:06;100626.78;;;17.39;49.03
16190;BME280;41754;51.498;7.540;2023-04-29T11:32:37;100627.50;;;17.11;48.43
16190;BME280;41754;51.498;7.540;2023-04-29T11:35:07;100629.84;;;16.64;48.37
16190;BME280;41754;51.498;7.540;2023-04-29T11:37:36;100633.50;;;17.26;48.00
16190;BME280;41754;51.498;7.540;2023-04-29T11:40:05;100634.22;;;17.35;47.41
16190;BME280;41754;51.498;7.540;2023-04-29T11:42:33;100633.50;;;17.01;46.13
16190;BME280;41754;51.498;7.540;2023-04-29T11:45:03;100638.03;;;17.55;45.79
16190;BME280;41754;51.498;7.540;2023-04-29T11:47:31;100633.06;;;18.00;43.71
16190;BME280;41754;51.498;7.540;2023-04-29T11:50:05;100635.38;;;18.38;42.94
16190;BME280;41754;51.498;7.540;2023-04-29T11:52:36;100637.97;;;18.31;42.53
16190;BME280;41754;51.498;7.540;2023-04-29T11:55:05;100642.06;;;17.69;43.76
16190;BME280;41754;51.498;7.540;2023-04-29T11:57:35;100642.06;;;17.69;43.14
16190;BME280;41754;51.498;7.540;2023-04-29T12:00:04;100645.69;;;18.10;43.64
16190;BME280;41754;51.498;7.540;2023-04-29T12:02:36;100637.78;;;17.72;44.02
16190;BME280;41754;51.498;7.540;2023-04-29T12:05:06;100643.94;;;17.29;43.99
16190;BME280;41754;51.498;7.540;2023-04-29T12:07:35;100640.66;;;16.90;45.07
16190;BME280;41754;51.498;7.540;2023-04-29T12:10:07;100643.13;;;16.58;46.28
16190;BME280;41754;51.498;7.540;2023-04-29T12:12:35;100640.84;;;16.40;46.97
16190;BME280;41754;51.498;7.540;2023-04-29T12:15:07;100644.06;;;16.08;47.56
16190;BME280;41754;51.498;7.540;2023-04-29T12:17:36;100641.38;;;16.00;49.29
16190;BME280;41754;51.498;7.540;2023-04-29T12:20:07;100644.75;;;16.59;46.77
16190;BME280;41754;51.498;7.540;2023-04-29T12:22:36;100639.53;;;17.40;44.80
16190;BME280;41754;51.498;7.540;2023-04-29T12:25:06;100650.88;;;16.86;46.64
16190;BME280;41754;51.498;7.540;2023-04-29T12:27:34;100650.66;;;16.58;47.16
16190;BME280;41754;51.498;7.540;2023-04-29T12:30:06;100657.88;;;16.71;47.60
16190;BME280;41754;51.498;7.540;2023-04-29T12:32:35;100660.34;;;16.52;47.09
16190;BME280;41754;51.498;7.540;2023-04-29T12:35:07;100662.56;;;16.58;46.04
16190;BME280;41754;51.498;7.540;2023-04-29T12:37:42;100656.50;;;16.77;46.36
16190;BME280;41754;51.498;7.540;2023-04-29T12:40:12;100656.75;;;16.51;47.19
16190;BME280;41754;51.498;7.540;2023-04-29T12:42:42;100651.97;;;16.60;46.28
16190;BME280;41754;51.498;7.540;2023-04-29T12:45:25;100658.22;;;15.95;46.61
16190;BME280;41754;51.498;7.540;2023-04-29T12:47:57;100659.53;;;16.51;46.01
16190;BME280;41754;51.498;7.540;2023-04-29T12:50:30;100660.72;;;17.08;46.15
16190;BME280;41754;51.498;7.540;2023-04-29T12:53:00;100662.44;;;16.88;47.01
16190;BME280;41754;51.498;7.540;2023-04-29T12:55:29;100667.41;;;16.94;45.87
16190;BME280;41754;51.498;7.540;2023-04-29T12:57:58;100660.53;;;17.49;45.26
16190;BME280;41754;51.498;7.540;2023-04-29T13:00:27;100651.84;;;17.51;45.19
16190;BME280;41754;51.498;7.540;2023-04-29T13:02:55;100658.44;;;17.34;45.51
16190;BME280;41754;51.498;7.540;2023-04-29T13:05:23;100652.75;;;17.55;44.92
16190;BME280;41754;51.498;7.540;2023-04-29T13:07:52;100655.09;;;17.53;43.62
16190;BME280;41754;51.498;7.540;2023-04-29T13:10:20;100656.13;;;17.36;45.20
16190;BME280;41754;51.498;7.540;2023-04-29T13:12:48;100655.69;;;17.99;43.27